sensor_id;sensor_type;location;lat;lon;timestamp;temperature;humidity
3752;DHT22;50827;47.014;7.652;2022-12-18T00:00:05;1.30;99.90
3752;DHT22;50827;47.014;7.652;2022-12-18T00:02:32;1.30;99.90
3752;DHT22;50827;47.014;7.652;2022-12-18T00:04:59;1.30;99.90
3752;DHT22;50827;47.014;7.652;2022-12-18T00:07:25;1.30;99.90
3752;DHT22;50827;47.014;7.652;2022-12-18T00:09:52;1.30;99.90
3752;DHT22;50827;47.014;7.652;2022-12-18T00:12:18;1.40;99.90
3752;DHT22;50827;47.014;7.652;2022-12-18T00:14:45;1.40;99.90
3752;DHT22;50827;47.014;7.652;2022-12-18T00:17:12;1.40;99.90
3752;DHT22;50827;47.014;7.652;2022-12-18T00:19:38;1.40;99.90
3752;DHT22;50827;47.014;7.652;2022-12-18T00:22:05;1.40;99.90
3752;DHT22;50827;47.014;7.652;2022-12-18T00:24:32;1.30;99.90
3752;DHT22;50827;47.014;7.652;2022-12-18T00:26:59;1.30;99.90
3752;DHT22;50827;47.014;7.652;2022-12-18T00:29:25;1.20;99.90
3752;DHT22;50827;47.014;7.652;2022-12-18T00:31:52;1.30;99.90
3752;DHT22;50827;47.014;7.652;2022-12-18T00:34:19;1.30;99.90
3752;DHT22;50827;47.014;7.652;2022-12-18T00:36:47;1.30;99.90
3752;DHT22;50827;47.014;7.652;2022-12-18T00:39:14;1.30;99.90
3752;DHT22;50827;47.014;7.652;2022-12-18T00:41:40;1.40;99.90
3752;DHT22;50827;47.014;7.652;2022-12-18T00:44:26;1.40;99.90
3752;DHT22;50827;47.014;7.652;2022-12-18T00:46:52;1.40;99.90
3752;DHT22;50827;47.014;7.652;2022-12-18T00:49:19;1.40;99.90
3752;DHT22;50827;47.014;7.652;2022-12-18T00:51:47;1.50;99.90
3752;DHT22;50827;47.014;7.652;2022-12-18T00:54:15;1.50;99.90
3752;DHT22;50827;47.014;7.652;2022-12-18T00:56:41;1.40;99.90
3752;DHT22;50827;47.014;7.652;2022-12-18T00:59:16;1.40;99.90
3752;DHT22;50827;47.014;7.652;2022-12-18T01:01:43;1.50;99.90
3752;DHT22;50827;47.014;7.652;2022-12-18T01:04:10;1.50;99.90
3752;DHT22;50827;47.014;7.652;2022-12-18T01:06:37;1.50;99.90
3752;DHT22;50827;47.014;7.652;2022-12-18T01:09:04;1.50;99.90
3752;DHT22;50827;47.014;7.652;2022-12-18T01:11:30;1.50;99.90
3752;DHT22;50827;47.014;7.652;2022-12-18T01:13:57;1.40;99.90
3752;DHT22;50827;47.014;7.652;2022-12-18T01:16:24;1.40;99.90
3752;DHT22;50827;47.014;7.652;2022-12-18T01:18:52;1.40;99.90
3752;DHT22;50827;47.014;7.652;2022-12-18T01:21:20;1.50;99.90
3752;DHT22;50827;47.014;7.652;2022-12-18T01:23:51;1.50;99.90
3752;DHT22;50827;47.014;7.652;2022-12-18T01:26:18;1.50;99.90
3752;DHT22;50827;47.014;7.652;2022-12-18T01:28:45;1.50;99.90
3752;DHT22;50827;47.014;7.652;2022-12-18T01:31:14;1.50;99.90
3752;DHT22;50827;47.014;7.652;2022-12-18T01:33:42;1.50;99.90
3752;DHT22;50827;47.014;7.652;2022-12-18T01:36:18;1.60;99.90
3752;DHT22;50827;47.014;7.652;2022-12-18T01:38:45;1.60;99.90
3752;DHT22;50827;47.014;7.652;2022-12-18T01:41:12;1.60;99.90
3752;DHT22;50827;47.014;7.652;2022-12-18T01:43:59;1.70;99.90
3752;DHT22;50827;47.014;7.652;2022-12-18T01:46:27;1.60;99.90
3752;DHT22;50827;47.014;7.652;2022-12-18T01:48:57;1.60;99.90
3752;DHT22;50827;47.014;7.652;2022-12-18T01:51:25;1.50;99.90
3752;DHT22;50827;47.014;7.652;2022-12-18T01:53:53;1.60;99.90
3752;DHT22;50827;47.014;7.652;2022-12-18T01:56:20;1.60;99.90
3752;DHT22;50827;47.014;7.652;2022-12-18T01:59:05;1.60;99.90
3752;DHT22;50827;47.014;7.652;2022-12-18T02:01:34;1.60;99.90
3752;DHT22;50827;47.014;7.652;2022-12-18T02:04:24;1.60;99.90
3752;DHT22;50827;47.014;7.652;2022-12-18T02:09:36;1.60;99.90
3752;DHT22;50827;47.014;7.652;2022-12-18T02:12:22;1.60;99.90
3752;DHT22;50827;47.014;7.652;2022-12-18T02:17:22;1.60;99.90
3752;DHT22;50827;47.014;7.652;2022-12-18T02:27:54;1.60;99.90
3752;DHT22;50827;47.014;7.652;2022-12-18T02:30:24;1.60;99.90
3752;DHT22;50827;47.014;7.652;2022-12-18T02:32:53;1.60;99.90
3752;DHT22;50827;47.014;7.652;2022-12-18T02:35:23;1.50;99.90
3752;DHT22;50827;47.014;7.652;2022-12-18T02:37:51;1.40;99.90
3752;DHT22;50827;47.014;7.652;2022-12-18T02:40:19;1.40;99.90
3752;DHT22;50827;47.014;7.652;2022-12-18T02:42:46;1.40;99.90
3752;DHT22;50827;47.014;7.652;2022-12-18T02:45:13;1.30;99.90
3752;DHT22;50827;47.014;7.652;2022-12-18T02:47:43;1.30;99.90
3752;DHT22;50827;47.014;7.652;2022-12-18T02:50:26;1.40;99.90
3752;DHT22;50827;47.014;7.652;2022-12-18T02:53:16;1.30;99.90
3752;DHT22;50827;47.014;7.652;2022-12-18T02:56:15;1.20;99.90
3752;DHT22;50827;47.014;7.652;2022-12-18T02:59:09;1.20;99.90
3752;DHT22;50827;47.014;7.652;2022-12-18T03:04:30;1.20;99.90
3752;DHT22;50827;47.014;7.652;2022-12-18T03:07:02;1.30;99.90
3752;DHT22;50827;47.014;7.652;2022-12-18T03:09:37;1.20;99.90
3752;DHT22;50827;47.014;7.652;2022-12-18T03:12:22;1.20;99.90
3752;DHT22;50827;47.014;7.652;2022-12-18T03:15:16;1.30;99.90
3752;DHT22;50827;47.014;7.652;2022-12-18T03:17:48;1.30;99.90
3752;DHT22;50827;47.014;7.652;2022-12-18T03:20:18;1.30;99.90
3752;DHT22;50827;47.014;7.652;2022-12-18T03:22:50;1.40;99.90
3752;DHT22;50827;47.014;7.652;2022-12-18T03:25:18;1.30;99.90
3752;DHT22;50827;47.014;7.652;2022-12-18T03:27:52;1.40;99.90
3752;DHT22;50827;47.014;7.652;2022-12-18T03:30:20;1.40;99.90
3752;DHT22;50827;47.014;7.652;2022-12-18T03:33:04;1.40;99.90
3752;DHT22;50827;47.014;7.652;2022-12-18T03:35:37;1.50;99.90
3752;DHT22;50827;47.014;7.652;2022-12-18T03:38:05;1.50;99.90
3752;DHT22;50827;47.014;7.652;2022-12-18T03:43:43;1.50;99.90
3752;DHT22;50827;47.014;7.652;2022-12-18T03:46:20;1.50;99.90
3752;DHT22;50827;47.014;7.652;2022-12-18T03:49:08;1.50;99.90
3752;DHT22;50827;47.014;7.652;2022-12-18T03:54:27;1.40;99.90
3752;DHT22;50827;47.014;7.652;2022-12-18T03:57:03;1.40;99.90
3752;DHT22;50827;47.014;7.652;2022-12-18T03:59:31;1.40;99.90
3752;DHT22;50827;47.014;7.652;2022-12-18T04:02:00;1.40;99.90
3752;DHT22;50827;47.014;7.652;2022-12-18T04:04:28;1.40;99.90
3752;DHT22;50827;47.014;7.652;2022-12-18T04:06:57;1.40;99.90
3752;DHT22;50827;47.014;7.652;2022-12-18T04:09:25;1.40;99.90
3752;DHT22;50827;47.014;7.652;2022-12-18T04:11:52;1.30;99.90
3752;DHT22;50827;47.014;7.652;2022-12-18T04:14:19;1.20;99.90
3752;DHT22;50827;47.014;7.652;2022-12-18T04:16:46;1.20;99.90
3752;DHT22;50827;47.014;7.652;2022-12-18T04:19:12;1.20;99.90
3752;DHT22;50827;47.014;7.652;2022-12-18T04:21:39;1.20;99.90
3752;DHT22;50827;47.014;7.652;2022-12-18T04:24:06;1.20;99.90
3752;DHT22;50827;47.014;7.652;2022-12-18T04:26:33;1.20;99.90
3752;DHT22;50827;47.014;7.652;2022-12-18T04:29:00;1.20;99.90
3752;DHT22;50827;47.014;7.652;2022-12-18T04:31:27;1.20;99.90
3752;DHT22;50827;47.014;7.652;2022-12-18T04:33:53;1.20;99.90
3752;DHT22;50827;47.014;7.652;2022-12-18T04:36:20;1.30;99.90
3752;DHT22;50827;47.014;7.652;2022-12-18T04:38:47;1.20;99.90
3752;DHT22;50827;47.014;7.652;2022-12-18T04:41:14;1.10;99.90
3752;DHT22;50827;47.014;7.652;2022-12-18T04:43:40;1.00;99.90
3752;DHT22;50827;47.014;7.652;2022-12-18T04:46:08;1.00;99.90
3752;DHT22;50827;47.014;7.652;2022-12-18T04:48:35;0.90;99.90
3752;DHT22;50827;47.014;7.652;2022-12-18T04:51:03;0.90;99.90
3752;DHT22;50827;47.014;7.652;2022-12-18T04:53:31;0.90;99.90
3752;DHT22;50827;47.014;7.652;2022-12-18T04:56:09;0.90;99.90
3752;DHT22;50827;47.014;7.652;2022-12-18T04:58:37;0.80;99.90
3752;DHT22;50827;47.014;7.652;2022-12-18T05:01:05;0.80;99.90
3752;DHT22;50827;47.014;7.652;2022-12-18T05:03:32;0.70;99.90
3752;DHT22;50827;47.014;7.652;2022-12-18T05:06:00;0.70;99.90
3752;DHT22;50827;47.014;7.652;2022-12-18T05:08:26;0.60;99.90
3752;DHT22;50827;47.014;7.652;2022-12-18T05:11:04;0.60;99.90
3752;DHT22;50827;47.014;7.652;2022-12-18T05:13:32;0.60;99.90
3752;DHT22;50827;47.014;7.652;2022-12-18T05:15:59;0.60;99.90
3752;DHT22;50827;47.014;7.652;2022-12-18T05:18:26;0.60;99.90
3752;DHT22;50827;47.014;7.652;2022-12-18T05:20:53;0.50;99.90
3752;DHT22;50827;47.014;7.652;2022-12-18T05:23:21;0.60;99.90
3752;DHT22;50827;47.014;7.652;2022-12-18T05:26:03;0.60;99.90
3752;DHT22;50827;47.014;7.652;2022-12-18T05:28:32;0.60;99.90
3752;DHT22;50827;47.014;7.652;2022-12-18T05:31:01;0.60;99.90
3752;DHT22;50827;47.014;7.652;2022-12-18T05:33:31;0.60;99.90
3752;DHT22;50827;47.014;7.652;2022-12-18T05:36:00;0.60;99.90
3752;DHT22;50827;47.014;7.652;2022-12-18T05:38:28;0.60;99.90
3752;DHT22;50827;47.014;7.652;2022-12-18T05:40:55;0.60;99.90
3752;DHT22;50827;47.014;7.652;2022-12-18T05:43:23;0.60;99.90
3752;DHT22;50827;47.014;7.652;2022-12-18T05:45:51;0.60;99.90
3752;DHT22;50827;47.014;7.652;2022-12-18T05:48:19;0.70;99.90
3752;DHT22;50827;47.014;7.652;2022-12-18T05:50:47;0.80;99.90
3752;DHT22;50827;47.014;7.652;2022-12-18T05:53:17;0.70;99.90
3752;DHT22;50827;47.014;7.652;2022-12-18T05:55:45;0.70;99.90
3752;DHT22;50827;47.014;7.652;2022-12-18T05:58:13;0.70;99.90
3752;DHT22;50827;47.014;7.652;2022-12-18T06:00:45;0.60;99.90
3752;DHT22;50827;47.014;7.652;2022-12-18T06:03:12;0.70;99.90
3752;DHT22;50827;47.014;7.652;2022-12-18T06:05:42;0.80;99.90
3752;DHT22;50827;47.014;7.652;2022-12-18T06:08:09;0.90;99.90
3752;DHT22;50827;47.014;7.652;2022-12-18T06:10:37;0.90;99.90
3752;DHT22;50827;47.014;7.652;2022-12-18T06:13:04;0.80;99.90
3752;DHT22;50827;47.014;7.652;2022-12-18T06:15:31;0.80;99.90
3752;DHT22;50827;47.014;7.652;2022-12-18T06:17:58;0.80;99.90
3752;DHT22;50827;47.014;7.652;2022-12-18T06:20:24;0.80;99.90
3752;DHT22;50827;47.014;7.652;2022-12-18T06:22:58;0.90;99.90
3752;DHT22;50827;47.014;7.652;2022-12-18T06:25:25;1.00;99.90
3752;DHT22;50827;47.014;7.652;2022-12-18T06:27:52;1.00;99.90
3752;DHT22;50827;47.014;7.652;2022-12-18T06:30:19;1.00;99.90
3752;DHT22;50827;47.014;7.652;2022-12-18T06:32:45;1.10;99.90
3752;DHT22;50827;47.014;7.652;2022-12-18T06:35:18;1.10;99.90
3752;DHT22;50827;47.014;7.652;2022-12-18T06:37:46;1.10;99.90
3752;DHT22;50827;47.014;7.652;2022-12-18T06:40:13;1.00;99.90
3752;DHT22;50827;47.014;7.652;2022-12-18T06:42:39;1.10;99.90
3752;DHT22;50827;47.014;7.652;2022-12-18T06:45:06;1.10;99.90
3752;DHT22;50827;47.014;7.652;2022-12-18T06:47:33;1.10;99.90
3752;DHT22;50827;47.014;7.652;2022-12-18T06:50:00;1.10;99.90
3752;DHT22;50827;47.014;7.652;2022-12-18T06:52:27;1.10;99.90
3752;DHT22;50827;47.014;7.652;2022-12-18T06:54:53;1.10;99.90
3752;DHT22;50827;47.014;7.652;2022-12-18T06:57:20;1.10;99.90
3752;DHT22;50827;47.014;7.652;2022-12-18T06:59:47;1.20;99.90
3752;DHT22;50827;47.014;7.652;2022-12-18T07:02:14;1.20;99.90
3752;DHT22;50827;47.014;7.652;2022-12-18T07:04:41;1.20;99.90
3752;DHT22;50827;47.014;7.652;2022-12-18T07:07:07;1.10;99.90
3752;DHT22;50827;47.014;7.652;2022-12-18T07:09:34;1.10;99.90
3752;DHT22;50827;47.014;7.652;2022-12-18T07:12:01;1.10;99.90
3752;DHT22;50827;47.014;7.652;2022-12-18T07:14:28;1.10;99.90
3752;DHT22;50827;47.014;7.652;2022-12-18T07:16:55;1.10;99.90
3752;DHT22;50827;47.014;7.652;2022-12-18T07:19:23;1.10;99.90
3752;DHT22;50827;47.014;7.652;2022-12-18T07:21:50;1.10;99.90
3752;DHT22;50827;47.014;7.652;2022-12-18T07:24:17;1.10;99.90
3752;DHT22;50827;47.014;7.652;2022-12-18T07:26:46;1.10;99.90
3752;DHT22;50827;47.014;7.652;2022-12-18T07:29:13;1.10;99.90
3752;DHT22;50827;47.014;7.652;2022-12-18T07:31:40;1.10;99.90
3752;DHT22;50827;47.014;7.652;2022-12-18T07:34:13;1.10;99.90
3752;DHT22;50827;47.014;7.652;2022-12-18T07:36:41;1.00;99.90
3752;DHT22;50827;47.014;7.652;2022-12-18T07:39:08;1.00;99.90
3752;DHT22;50827;47.014;7.652;2022-12-18T07:41:34;1.10;99.90
3752;DHT22;50827;47.014;7.652;2022-12-18T07:44:01;1.10;99.90
3752;DHT22;50827;47.014;7.652;2022-12-18T07:46:28;1.10;99.90
3752;DHT22;50827;47.014;7.652;2022-12-18T07:48:54;1.20;99.90
3752;DHT22;50827;47.014;7.652;2022-12-18T07:51:21;1.20;99.90
3752;DHT22;50827;47.014;7.652;2022-12-18T07:53:48;1.30;99.90
3752;DHT22;50827;47.014;7.652;2022-12-18T07:56:18;1.30;99.90
3752;DHT22;50827;47.014;7.652;2022-12-18T07:58:54;1.40;99.90
3752;DHT22;50827;47.014;7.652;2022-12-18T08:01:21;1.40;99.90
3752;DHT22;50827;47.014;7.652;2022-12-18T08:03:49;1.30;99.90
3752;DHT22;50827;47.014;7.652;2022-12-18T08:06:18;1.10;99.90
3752;DHT22;50827;47.014;7.652;2022-12-18T08:08:53;1.20;99.90
3752;DHT22;50827;47.014;7.652;2022-12-18T08:11:22;1.20;99.90
3752;DHT22;50827;47.014;7.652;2022-12-18T08:13:49;1.20;99.90
3752;DHT22;50827;47.014;7.652;2022-12-18T08:16:17;1.20;99.90
3752;DHT22;50827;47.014;7.652;2022-12-18T08:18:45;1.30;99.90
3752;DHT22;50827;47.014;7.652;2022-12-18T08:21:14;1.20;99.90
3752;DHT22;50827;47.014;7.652;2022-12-18T08:23:41;1.10;99.90
3752;DHT22;50827;47.014;7.652;2022-12-18T08:26:11;1.00;99.90
3752;DHT22;50827;47.014;7.652;2022-12-18T08:28:38;0.90;99.90
3752;DHT22;50827;47.014;7.652;2022-12-18T08:31:05;0.90;99.90
3752;DHT22;50827;47.014;7.652;2022-12-18T08:33:34;0.80;99.90
3752;DHT22;50827;47.014;7.652;2022-12-18T08:36:02;0.70;99.90
3752;DHT22;50827;47.014;7.652;2022-12-18T08:38:28;0.70;99.90
3752;DHT22;50827;47.014;7.652;2022-12-18T08:41:05;0.70;99.90
3752;DHT22;50827;47.014;7.652;2022-12-18T08:43:33;0.70;99.90
3752;DHT22;50827;47.014;7.652;2022-12-18T08:46:22;0.70;99.90
3752;DHT22;50827;47.014;7.652;2022-12-18T08:48:54;0.70;99.90
3752;DHT22;50827;47.014;7.652;2022-12-18T08:51:22;0.70;99.90
3752;DHT22;50827;47.014;7.652;2022-12-18T08:53:48;0.60;99.90
3752;DHT22;50827;47.014;7.652;2022-12-18T08:56:15;0.60;99.90
3752;DHT22;50827;47.014;7.652;2022-12-18T08:58:42;0.60;99.90
3752;DHT22;50827;47.014;7.652;2022-12-18T09:01:11;0.60;99.90
3752;DHT22;50827;47.014;7.652;2022-12-18T09:03:38;0.60;99.90
3752;DHT22;50827;47.014;7.652;2022-12-18T09:06:06;0.60;99.90
3752;DHT22;50827;47.014;7.652;2022-12-18T09:08:35;0.70;99.90
3752;DHT22;50827;47.014;7.652;2022-12-18T09:11:03;0.70;99.90
3752;DHT22;50827;47.014;7.652;2022-12-18T09:13:30;0.70;99.90
3752;DHT22;50827;47.014;7.652;2022-12-18T09:15:57;0.70;99.90
3752;DHT22;50827;47.014;7.652;2022-12-18T09:18:24;0.80;99.90
3752;DHT22;50827;47.014;7.652;2022-12-18T09:20:51;0.80;99.90
3752;DHT22;50827;47.014;7.652;2022-12-18T09:23:19;0.80;99.90
3752;DHT22;50827;47.014;7.652;2022-12-18T09:25:46;0.80;99.90
3752;DHT22;50827;47.014;7.652;2022-12-18T09:28:15;0.80;99.90
3752;DHT22;50827;47.014;7.652;2022-12-18T09:30:45;0.90;99.90
3752;DHT22;50827;47.014;7.652;2022-12-18T09:33:13;0.90;99.90
3752;DHT22;50827;47.014;7.652;2022-12-18T09:35:44;1.00;99.90
3752;DHT22;50827;47.014;7.652;2022-12-18T09:38:17;0.90;99.90
3752;DHT22;50827;47.014;7.652;2022-12-18T09:40:48;1.00;99.90
3752;DHT22;50827;47.014;7.652;2022-12-18T09:43:28;1.00;99.90
3752;DHT22;50827;47.014;7.652;2022-12-18T09:46:01;1.00;99.90
3752;DHT22;50827;47.014;7.652;2022-12-18T09:48:36;1.10;99.90
3752;DHT22;50827;47.014;7.652;2022-12-18T09:51:11;1.10;99.90
3752;DHT22;50827;47.014;7.652;2022-12-18T09:53:41;1.20;99.90
3752;DHT22;50827;47.014;7.652;2022-12-18T09:56:16;1.30;99.90
3752;DHT22;50827;47.014;7.652;2022-12-18T09:59:04;1.40;99.90
3752;DHT22;50827;47.014;7.652;2022-12-18T10:01:32;1.40;99.90
3752;DHT22;50827;47.014;7.652;2022-12-18T10:04:10;1.40;99.90
3752;DHT22;50827;47.014;7.652;2022-12-18T10:06:46;1.40;99.90
3752;DHT22;50827;47.014;7.652;2022-12-18T10:09:37;1.30;99.90
3752;DHT22;50827;47.014;7.652;2022-12-18T10:12:26;1.30;99.90
3752;DHT22;50827;47.014;7.652;2022-12-18T10:15:18;1.40;99.90
3752;DHT22;50827;47.014;7.652;2022-12-18T10:17:53;1.50;99.90
3752;DHT22;50827;47.014;7.652;2022-12-18T10:20:33;1.50;99.90
3752;DHT22;50827;47.014;7.652;2022-12-18T10:23:04;1.40;99.90
3752;DHT22;50827;47.014;7.652;2022-12-18T10:25:54;1.50;99.90
3752;DHT22;50827;47.014;7.652;2022-12-18T10:28:23;1.50;99.90
3752;DHT22;50827;47.014;7.652;2022-12-18T10:30:50;1.40;99.90
3752;DHT22;50827;47.014;7.652;2022-12-18T10:33:20;1.40;99.90
3752;DHT22;50827;47.014;7.652;2022-12-18T10:35:50;1.50;99.90
3752;DHT22;50827;47.014;7.652;2022-12-18T10:41:00;1.40;99.90
3752;DHT22;50827;47.014;7.652;2022-12-18T10:43:29;1.30;99.90
3752;DHT22;50827;47.014;7.652;2022-12-18T10:48:40;1.40;99.90
3752;DHT22;50827;47.014;7.652;2022-12-18T10:51:08;1.30;99.90
3752;DHT22;50827;47.014;7.652;2022-12-18T10:53:40;1.40;99.90
3752;DHT22;50827;47.014;7.652;2022-12-18T10:56:08;1.30;99.90
3752;DHT22;50827;47.014;7.652;2022-12-18T10:58:37;1.40;99.90
3752;DHT22;50827;47.014;7.652;2022-12-18T11:01:16;1.40;99.90
3752;DHT22;50827;47.014;7.652;2022-12-18T11:03:59;1.40;99.90
3752;DHT22;50827;47.014;7.652;2022-12-18T11:06:29;1.40;99.90
3752;DHT22;50827;47.014;7.652;2022-12-18T11:11:37;1.50;99.90
3752;DHT22;50827;47.014;7.652;2022-12-18T11:14:25;1.50;99.90
3752;DHT22;50827;47.014;7.652;2022-12-18T11:16:54;1.60;99.90
3752;DHT22;50827;47.014;7.652;2022-12-18T11:19:42;1.60;99.90
3752;DHT22;50827;47.014;7.652;2022-12-18T11:22:33;1.60;99.90
3752;DHT22;50827;47.014;7.652;2022-12-18T11:25:02;1.70;99.90
3752;DHT22;50827;47.014;7.652;2022-12-18T11:27:56;1.80;99.90
3752;DHT22;50827;47.014;7.652;2022-12-18T11:30:32;1.90;99.90
3752;DHT22;50827;47.014;7.652;2022-12-18T11:35:58;1.90;99.90
3752;DHT22;50827;47.014;7.652;2022-12-18T11:38:32;1.90;99.90
3752;DHT22;50827;47.014;7.652;2022-12-18T11:43:58;1.70;99.90
3752;DHT22;50827;47.014;7.652;2022-12-18T11:46:27;1.70;99.90
3752;DHT22;50827;47.014;7.652;2022-12-18T11:49:03;1.70;99.90
3752;DHT22;50827;47.014;7.652;2022-12-18T11:51:37;1.70;99.90
3752;DHT22;50827;47.014;7.652;2022-12-18T11:54:13;1.90;99.90
3752;DHT22;50827;47.014;7.652;2022-12-18T11:56:48;1.80;99.90
3752;DHT22;50827;47.014;7.652;2022-12-18T12:07:57;1.90;99.90
3752;DHT22;50827;47.014;7.652;2022-12-18T12:18:43;1.80;99.90
3752;DHT22;50827;47.014;7.652;2022-12-18T12:21:29;1.80;99.90
3752;DHT22;50827;47.014;7.652;2022-12-18T12:27:28;1.90;99.90
3752;DHT22;50827;47.014;7.652;2022-12-18T12:32:43;1.80;99.90
3752;DHT22;50827;47.014;7.652;2022-12-18T12:38:54;1.80;99.90
3752;DHT22;50827;47.014;7.652;2022-12-18T12:41:08;1.80;99.90
3752;DHT22;50827;47.014;7.652;2022-12-18T12:43:58;1.80;99.90
3752;DHT22;50827;47.014;7.652;2022-12-18T12:46:26;1.90;99.90
3752;DHT22;50827;47.014;7.652;2022-12-18T12:48:55;1.80;99.90
3752;DHT22;50827;47.014;7.652;2022-12-18T12:51:45;1.90;99.90
3752;DHT22;50827;47.014;7.652;2022-12-18T12:54:23;2.00;99.90
3752;DHT22;50827;47.014;7.652;2022-12-18T12:57:04;2.10;99.90
3752;DHT22;50827;47.014;7.652;2022-12-18T12:59:59;2.00;99.90
3752;DHT22;50827;47.014;7.652;2022-12-18T13:02:46;2.00;99.90
3752;DHT22;50827;47.014;7.652;2022-12-18T13:08:08;2.30;99.90
3752;DHT22;50827;47.014;7.652;2022-12-18T13:10:41;2.20;99.90
3752;DHT22;50827;47.014;7.652;2022-12-18T13:13:15;2.20;99.90
3752;DHT22;50827;47.014;7.652;2022-12-18T13:16:06;2.00;99.90
3752;DHT22;50827;47.014;7.652;2022-12-18T13:18:34;2.10;99.90
3752;DHT22;50827;47.014;7.652;2022-12-18T13:21:12;2.00;99.90
3752;DHT22;50827;47.014;7.652;2022-12-18T13:23:44;2.10;99.90
3752;DHT22;50827;47.014;7.652;2022-12-18T13:28:59;2.10;99.90
3752;DHT22;50827;47.014;7.652;2022-12-18T13:34:25;2.10;99.90
3752;DHT22;50827;47.014;7.652;2022-12-18T13:37:36;2.10;99.90
3752;DHT22;50827;47.014;7.652;2022-12-18T13:39:43;2.10;99.90
3752;DHT22;50827;47.014;7.652;2022-12-18T13:44:57;2.10;99.90
3752;DHT22;50827;47.014;7.652;2022-12-18T13:47:36;2.10;99.90
3752;DHT22;50827;47.014;7.652;2022-12-18T13:50:24;2.10;99.90
3752;DHT22;50827;47.014;7.652;2022-12-18T13:52:59;2.10;99.90
3752;DHT22;50827;47.014;7.652;2022-12-18T13:55:26;2.10;99.90
3752;DHT22;50827;47.014;7.652;2022-12-18T13:58:04;2.10;99.90
3752;DHT22;50827;47.014;7.652;2022-12-18T14:00:31;2.00;99.90
3752;DHT22;50827;47.014;7.652;2022-12-18T14:02:59;2.10;99.90
3752;DHT22;50827;47.014;7.652;2022-12-18T14:05:31;2.10;99.90
3752;DHT22;50827;47.014;7.652;2022-12-18T14:08:05;2.10;99.90
3752;DHT22;50827;47.014;7.652;2022-12-18T14:10:35;2.00;99.90
3752;DHT22;50827;47.014;7.652;2022-12-18T14:13:27;2.10;99.90
3752;DHT22;50827;47.014;7.652;2022-12-18T14:15:56;2.00;99.90
3752;DHT22;50827;47.014;7.652;2022-12-18T14:21:02;2.00;99.90
3752;DHT22;50827;47.014;7.652;2022-12-18T14:23:40;2.00;99.90
3752;DHT22;50827;47.014;7.652;2022-12-18T14:28:50;2.00;99.90
3752;DHT22;50827;47.014;7.652;2022-12-18T14:31:19;2.00;99.90
3752;DHT22;50827;47.014;7.652;2022-12-18T14:33:46;2.00;99.90
3752;DHT22;50827;47.014;7.652;2022-12-18T14:36:21;2.00;99.90
3752;DHT22;50827;47.014;7.652;2022-12-18T14:38:57;2.00;99.90
3752;DHT22;50827;47.014;7.652;2022-12-18T14:41:24;2.00;99.90
3752;DHT22;50827;47.014;7.652;2022-12-18T14:43:56;2.10;99.90
3752;DHT22;50827;47.014;7.652;2022-12-18T14:46:42;2.20;99.90
3752;DHT22;50827;47.014;7.652;2022-12-18T14:49:20;2.20;99.90
3752;DHT22;50827;47.014;7.652;2022-12-18T14:52:15;2.20;99.90
3752;DHT22;50827;47.014;7.652;2022-12-18T14:54:46;2.20;99.90
3752;DHT22;50827;47.014;7.652;2022-12-18T14:57:35;2.20;99.90
3752;DHT22;50827;47.014;7.652;2022-12-18T15:00:16;2.20;99.90
3752;DHT22;50827;47.014;7.652;2022-12-18T15:02:52;2.10;99.90
3752;DHT22;50827;47.014;7.652;2022-12-18T15:05:26;2.10;99.90
3752;DHT22;50827;47.014;7.652;2022-12-18T15:07:56;2.10;99.90
3752;DHT22;50827;47.014;7.652;2022-12-18T15:10:28;2.10;99.90
3752;DHT22;50827;47.014;7.652;2022-12-18T15:20:54;1.60;99.90
3752;DHT22;50827;47.014;7.652;2022-12-18T15:23:29;1.60;99.90
3752;DHT22;50827;47.014;7.652;2022-12-18T15:26:01;1.60;99.90
3752;DHT22;50827;47.014;7.652;2022-12-18T15:28:48;1.60;99.90
3752;DHT22;50827;47.014;7.652;2022-12-18T15:33:59;1.60;99.90
3752;DHT22;50827;47.014;7.652;2022-12-18T15:36:28;1.60;99.90
3752;DHT22;50827;47.014;7.652;2022-12-18T15:38:57;1.70;99.90
3752;DHT22;50827;47.014;7.652;2022-12-18T15:41:34;1.70;99.90
3752;DHT22;50827;47.014;7.652;2022-12-18T15:44:03;1.70;99.90
3752;DHT22;50827;47.014;7.652;2022-12-18T15:46:30;1.70;99.90
3752;DHT22;50827;47.014;7.652;2022-12-18T15:48:58;1.60;99.90
3752;DHT22;50827;47.014;7.652;2022-12-18T15:51:35;1.50;99.90
3752;DHT22;50827;47.014;7.652;2022-12-18T15:54:05;1.40;99.90
3752;DHT22;50827;47.014;7.652;2022-12-18T15:56:32;1.30;99.90
3752;DHT22;50827;47.014;7.652;2022-12-18T15:59:20;1.30;99.90
3752;DHT22;50827;47.014;7.652;2022-12-18T16:01:49;1.20;99.90
3752;DHT22;50827;47.014;7.652;2022-12-18T16:04:18;1.20;99.90
3752;DHT22;50827;47.014;7.652;2022-12-18T16:06:47;1.00;99.90
3752;DHT22;50827;47.014;7.652;2022-12-18T16:09:35;1.10;99.90
3752;DHT22;50827;47.014;7.652;2022-12-18T16:12:02;1.00;99.90
3752;DHT22;50827;47.014;7.652;2022-12-18T16:14:30;0.90;99.90
3752;DHT22;50827;47.014;7.652;2022-12-18T16:16:59;0.80;99.90
3752;DHT22;50827;47.014;7.652;2022-12-18T16:19:27;0.80;99.90
3752;DHT22;50827;47.014;7.652;2022-12-18T16:21:56;0.80;99.90
3752;DHT22;50827;47.014;7.652;2022-12-18T16:24:29;0.80;99.90
3752;DHT22;50827;47.014;7.652;2022-12-18T16:26:57;0.80;99.90
3752;DHT22;50827;47.014;7.652;2022-12-18T16:29:27;0.80;99.90
3752;DHT22;50827;47.014;7.652;2022-12-18T16:31:58;0.80;99.90
3752;DHT22;50827;47.014;7.652;2022-12-18T16:34:27;0.70;99.90
3752;DHT22;50827;47.014;7.652;2022-12-18T16:37:05;0.70;99.90
3752;DHT22;50827;47.014;7.652;2022-12-18T16:39:37;0.70;99.90
3752;DHT22;50827;47.014;7.652;2022-12-18T16:42:12;0.70;99.90
3752;DHT22;50827;47.014;7.652;2022-12-18T16:44:41;0.80;99.90
3752;DHT22;50827;47.014;7.652;2022-12-18T16:47:09;0.70;99.90
3752;DHT22;50827;47.014;7.652;2022-12-18T16:49:37;0.60;99.90
3752;DHT22;50827;47.014;7.652;2022-12-18T16:52:05;0.70;99.90
3752;DHT22;50827;47.014;7.652;2022-12-18T16:54:31;0.70;99.90
3752;DHT22;50827;47.014;7.652;2022-12-18T16:57:00;0.70;99.90
3752;DHT22;50827;47.014;7.652;2022-12-18T16:59:27;0.80;99.90
3752;DHT22;50827;47.014;7.652;2022-12-18T17:01:55;0.70;99.90
3752;DHT22;50827;47.014;7.652;2022-12-18T17:04:23;0.70;99.90
3752;DHT22;50827;47.014;7.652;2022-12-18T17:06:50;0.70;99.90
3752;DHT22;50827;47.014;7.652;2022-12-18T17:09:20;0.60;99.90
3752;DHT22;50827;47.014;7.652;2022-12-18T17:11:53;0.70;99.90
3752;DHT22;50827;47.014;7.652;2022-12-18T17:14:22;0.70;99.90
3752;DHT22;50827;47.014;7.652;2022-12-18T17:16:50;0.70;99.90
3752;DHT22;50827;47.014;7.652;2022-12-18T17:19:37;0.70;99.90
3752;DHT22;50827;47.014;7.652;2022-12-18T17:22:04;0.80;99.90
3752;DHT22;50827;47.014;7.652;2022-12-18T17:24:30;0.80;99.90
3752;DHT22;50827;47.014;7.652;2022-12-18T17:27:01;0.80;99.90
3752;DHT22;50827;47.014;7.652;2022-12-18T17:29:28;0.80;99.90
3752;DHT22;50827;47.014;7.652;2022-12-18T17:31:55;0.80;99.90
3752;DHT22;50827;47.014;7.652;2022-12-18T17:34:23;0.80;99.90
3752;DHT22;50827;47.014;7.652;2022-12-18T17:36:50;0.90;99.90
3752;DHT22;50827;47.014;7.652;2022-12-18T17:39:18;0.90;99.90
3752;DHT22;50827;47.014;7.652;2022-12-18T17:41:47;0.90;99.90
3752;DHT22;50827;47.014;7.652;2022-12-18T17:44:14;0.90;99.90
3752;DHT22;50827;47.014;7.652;2022-12-18T17:46:42;0.90;99.90
3752;DHT22;50827;47.014;7.652;2022-12-18T17:49:09;0.80;99.90
3752;DHT22;50827;47.014;7.652;2022-12-18T17:51:36;0.80;99.90
3752;DHT22;50827;47.014;7.652;2022-12-18T17:54:04;0.80;99.90
3752;DHT22;50827;47.014;7.652;2022-12-18T17:56:32;0.80;99.90